• Join FlightAware (Why Join?)
  • Login
  • US Flag 
11:08PM EDT


 

Airport Tracker/Info


-or-


 

Live Flight TrackerFlight Track Log ✈ UPS1121 ✈ 10-Jun-2013 ✈ KALB - KBDL

Flight Track Log - Related Links

Times and Time Zones

All times are in EDT time to prevent confusion due to time zone crossing. See the UPS1121 flight status page for this flight to view local times or setup timezone preferences in your user account.

Time Position Orientation Groundspeed Altitude Reporting Facility
EDT Latitude Longitude Course Direction KTS MPH feet Rate Location/Type
08:41PM 42.7361 -73.8083 154° Southeast 140 161 1,700  Level Boston Center
08:42PM 42.7092 -73.7906 154° Southeast 161 185 2,500 2,220 Climbing Boston Center
08:43PM 42.6744 -73.7364 131° Southeast 212 244 5,600 3,300 Climbing Boston Center
08:44PM 42.6253 -73.6561 130° Southeast 277 319 9,200 1,980 Climbing Boston Center
08:45PM 42.5492 -73.5447 133° Southeast 337 388 10,000 360 Climbing Boston Center
08:46PM 42.4981 -73.4594 129° Southeast 348 400 10,000  Level Boston Center
08:47PM 42.4239 -73.3569 134° Southeast 351 404 10,000  Level Boston Center
08:48PM 42.3517 -73.2661 137° Southeast 355 409 10,000  Level Boston Center
08:49PM 42.2728 -73.2089 152° Southeast 326 375 10,000  Level Boston Center
08:50PM 42.1961 -73.1492 150° Southeast 315 362 10,000 -600 Level Boston Center
08:51PM 42.1256 -73.1006 153° Southeast 290 334 8,800 -1,260 Descending Boston Center
08:52PM 42.0592 -73.0525 152° Southeast 273 314 7,500 -1,380 Descending Boston Center
08:53PM 41.9947 -73.0100 154° Southeast 260 299 6,100 -1,440 Descending Boston Center
08:54PM 41.9322 -72.9647 152° Southeast 249 287 4,700 -1,200 Descending Boston Center
08:55PM 41.8764 -72.9225 151° Southeast 231 266 3,700 -900 Descending Boston Center
08:56PM 41.8369 -72.8692 135° Southeast 200 230 2,900 -660 Descending Boston Center
08:57PM 41.8497 -72.8108 74° East 170 196 2,400 -600 Descending Boston Center
08:58PM 41.8747 -72.7747 47° Northeast 135 155 1,700 -540 Descending Boston Center
08:59PM 41.8978 -72.7442 45° Northeast 114 131 1,400 -600 Descending Boston Center
09:00PM 41.9228 -72.7164 40° Northeast 109 125 600 -840 Descending Boston Center